Newport Municipal Airport Newport US
ICAO: KONP
IATA: ONP
Category: Medium
Scheduled Services: No

Elevation: 160 ft
TransAlt. 18000 ft.

Airport Communications:
AWOS 3:133.9
SEATTLE CNTR:125.8
CTAF/UNICOM:122.8

KONP Zoom In..

Runways:

(A) RW 02 length 3001 ft width 75 ft
---- / hdg 18

(B) RW 16 length 5398 ft width 150 ft
ILS 111.50 / hdg 158

(C) RW 20 length 3001 ft width 75 ft
---- / hdg 198

(D) RW 34 length 5398 ft width 150 ft
---- / hdg 338

Location; KONP
Day. 17 / Time. 07.35 Zulu
* Altimeter: 30.10
* Temperature: 13° c. 55.4°f.
* Wind from: 350° Speed 03 kn.
Dewpoint: 12° c.
Visibility: 5 Statute Miles.
Clouds: Overcast 500 ft.
Conditions: Mist.

KONP 170735Z AUTO 35003KT 5SM BR OVC005 13/12 A3010 RMK AO2


Wind From 350°
Speed 03 kn.

 
 
jpsmedia.com for Web Design worldairports.se 2018   terms of use